sensor_id;sensor_type;location;lat;lon;timestamp;temperature;humidity
16511;DHT22;8368;48.772;8.754;2022-11-12T00:00:43;4.20;99.90
16511;DHT22;8368;48.772;8.754;2022-11-12T00:03:09;4.20;99.90
16511;DHT22;8368;48.772;8.754;2022-11-12T00:05:35;4.10;99.90
16511;DHT22;8368;48.772;8.754;2022-11-12T00:08:01;4.10;99.90
16511;DHT22;8368;48.772;8.754;2022-11-12T00:10:27;4.10;99.90
16511;DHT22;8368;48.772;8.754;2022-11-12T00:12:53;4.00;99.90
16511;DHT22;8368;48.772;8.754;2022-11-12T00:15:19;4.00;99.90
16511;DHT22;8368;48.772;8.754;2022-11-12T00:17:45;4.00;99.90
16511;DHT22;8368;48.772;8.754;2022-11-12T00:20:11;3.90;99.90
16511;DHT22;8368;48.772;8.754;2022-11-12T00:22:36;3.90;99.90
16511;DHT22;8368;48.772;8.754;2022-11-12T00:25:03;3.80;99.90
16511;DHT22;8368;48.772;8.754;2022-11-12T00:27:31;3.80;99.90
16511;DHT22;8368;48.772;8.754;2022-11-12T00:29:56;3.80;99.90
16511;DHT22;8368;48.772;8.754;2022-11-12T00:32:22;3.70;99.90
16511;DHT22;8368;48.772;8.754;2022-11-12T00:34:47;3.70;99.90
16511;DHT22;8368;48.772;8.754;2022-11-12T00:37:13;3.70;99.90
16511;DHT22;8368;48.772;8.754;2022-11-12T00:39:38;3.70;99.90
16511;DHT22;8368;48.772;8.754;2022-11-12T00:42:04;3.70;99.90
16511;DHT22;8368;48.772;8.754;2022-11-12T00:44:29;3.70;99.90
16511;DHT22;8368;48.772;8.754;2022-11-12T00:46:55;3.70;99.90
16511;DHT22;8368;48.772;8.754;2022-11-12T00:49:21;3.70;99.90
16511;DHT22;8368;48.772;8.754;2022-11-12T00:51:47;3.70;99.90
16511;DHT22;8368;48.772;8.754;2022-11-12T00:54:13;3.70;99.90
16511;DHT22;8368;48.772;8.754;2022-11-12T00:56:38;3.60;99.90
16511;DHT22;8368;48.772;8.754;2022-11-12T00:59:04;3.60;99.90
16511;DHT22;8368;48.772;8.754;2022-11-12T01:01:30;3.60;99.90
16511;DHT22;8368;48.772;8.754;2022-11-12T01:03:56;3.60;99.90
16511;DHT22;8368;48.772;8.754;2022-11-12T01:06:23;3.60;99.90
16511;DHT22;8368;48.772;8.754;2022-11-12T01:08:49;3.60;99.90
16511;DHT22;8368;48.772;8.754;2022-11-12T01:11:17;3.60;99.90
16511;DHT22;8368;48.772;8.754;2022-11-12T01:13:45;3.60;99.90
16511;DHT22;8368;48.772;8.754;2022-11-12T01:16:15;3.60;99.90
16511;DHT22;8368;48.772;8.754;2022-11-12T01:18:41;3.60;99.90
16511;DHT22;8368;48.772;8.754;2022-11-12T01:21:07;3.60;99.90
16511;DHT22;8368;48.772;8.754;2022-11-12T01:23:34;3.60;99.90
16511;DHT22;8368;48.772;8.754;2022-11-12T01:26:15;3.60;99.90
16511;DHT22;8368;48.772;8.754;2022-11-12T01:28:42;3.60;99.90
16511;DHT22;8368;48.772;8.754;2022-11-12T01:31:17;3.60;99.90
16511;DHT22;8368;48.772;8.754;2022-11-12T01:33:46;3.70;99.90
16511;DHT22;8368;48.772;8.754;2022-11-12T01:36:14;3.70;99.90
16511;DHT22;8368;48.772;8.754;2022-11-12T01:38:41;3.70;99.90
16511;DHT22;8368;48.772;8.754;2022-11-12T01:41:10;3.70;99.90
16511;DHT22;8368;48.772;8.754;2022-11-12T01:43:35;3.70;99.90
16511;DHT22;8368;48.772;8.754;2022-11-12T01:46:03;3.70;99.90
16511;DHT22;8368;48.772;8.754;2022-11-12T01:48:37;3.80;99.90
16511;DHT22;8368;48.772;8.754;2022-11-12T01:51:04;3.70;99.90
16511;DHT22;8368;48.772;8.754;2022-11-12T01:53:35;3.70;99.90
16511;DHT22;8368;48.772;8.754;2022-11-12T01:56:03;3.60;99.90
16511;DHT22;8368;48.772;8.754;2022-11-12T01:58:30;3.60;99.90
16511;DHT22;8368;48.772;8.754;2022-11-12T02:00:58;3.60;99.90
16511;DHT22;8368;48.772;8.754;2022-11-12T02:03:25;3.50;99.90
16511;DHT22;8368;48.772;8.754;2022-11-12T02:06:01;3.60;99.90
16511;DHT22;8368;48.772;8.754;2022-11-12T02:08:28;3.60;99.90
16511;DHT22;8368;48.772;8.754;2022-11-12T02:10:54;3.70;99.90
16511;DHT22;8368;48.772;8.754;2022-11-12T02:13:20;3.70;99.90
16511;DHT22;8368;48.772;8.754;2022-11-12T02:16:04;3.70;99.90
16511;DHT22;8368;48.772;8.754;2022-11-12T02:18:31;3.70;99.90
16511;DHT22;8368;48.772;8.754;2022-11-12T02:21:04;3.70;99.90
16511;DHT22;8368;48.772;8.754;2022-11-12T02:23:29;3.70;99.90
16511;DHT22;8368;48.772;8.754;2022-11-12T02:25:58;3.70;99.90
16511;DHT22;8368;48.772;8.754;2022-11-12T02:28:24;3.60;99.90
16511;DHT22;8368;48.772;8.754;2022-11-12T02:30:50;3.60;99.90
16511;DHT22;8368;48.772;8.754;2022-11-12T02:33:16;3.60;99.90
16511;DHT22;8368;48.772;8.754;2022-11-12T02:35:41;3.50;99.90
16511;DHT22;8368;48.772;8.754;2022-11-12T02:38:07;3.50;99.90
16511;DHT22;8368;48.772;8.754;2022-11-12T02:40:33;3.50;99.90
16511;DHT22;8368;48.772;8.754;2022-11-12T02:42:58;3.40;99.90
16511;DHT22;8368;48.772;8.754;2022-11-12T02:45:25;3.40;99.90
16511;DHT22;8368;48.772;8.754;2022-11-12T02:47:50;3.40;99.90
16511;DHT22;8368;48.772;8.754;2022-11-12T02:50:16;3.40;99.90
16511;DHT22;8368;48.772;8.754;2022-11-12T02:52:42;3.40;99.90
16511;DHT22;8368;48.772;8.754;2022-11-12T02:55:09;3.50;99.90
16511;DHT22;8368;48.772;8.754;2022-11-12T02:57:36;3.50;99.90
16511;DHT22;8368;48.772;8.754;2022-11-12T03:00:04;3.50;99.90
16511;DHT22;8368;48.772;8.754;2022-11-12T03:02:29;3.50;99.90
16511;DHT22;8368;48.772;8.754;2022-11-12T03:04:55;3.50;99.90
16511;DHT22;8368;48.772;8.754;2022-11-12T03:07:20;3.50;99.90
16511;DHT22;8368;48.772;8.754;2022-11-12T03:09:46;3.50;99.90
16511;DHT22;8368;48.772;8.754;2022-11-12T03:12:11;3.50;99.90
16511;DHT22;8368;48.772;8.754;2022-11-12T03:14:37;3.50;99.90
16511;DHT22;8368;48.772;8.754;2022-11-12T03:17:02;3.40;99.90
16511;DHT22;8368;48.772;8.754;2022-11-12T03:19:28;3.40;99.90
16511;DHT22;8368;48.772;8.754;2022-11-12T03:21:54;3.40;99.90
16511;DHT22;8368;48.772;8.754;2022-11-12T03:24:19;3.40;99.90
16511;DHT22;8368;48.772;8.754;2022-11-12T03:26:45;3.30;99.90
16511;DHT22;8368;48.772;8.754;2022-11-12T03:29:10;3.30;99.90
16511;DHT22;8368;48.772;8.754;2022-11-12T03:31:36;3.30;99.90
16511;DHT22;8368;48.772;8.754;2022-11-12T03:34:01;3.40;99.90
16511;DHT22;8368;48.772;8.754;2022-11-12T03:36:27;3.40;99.90
16511;DHT22;8368;48.772;8.754;2022-11-12T03:38:52;3.40;99.90
16511;DHT22;8368;48.772;8.754;2022-11-12T03:41:18;3.40;99.90
16511;DHT22;8368;48.772;8.754;2022-11-12T03:43:43;3.40;99.90
16511;DHT22;8368;48.772;8.754;2022-11-12T03:46:09;3.40;99.90
16511;DHT22;8368;48.772;8.754;2022-11-12T03:48:35;3.40;99.90
16511;DHT22;8368;48.772;8.754;2022-11-12T03:51:00;3.40;99.90
16511;DHT22;8368;48.772;8.754;2022-11-12T03:53:26;3.40;99.90
16511;DHT22;8368;48.772;8.754;2022-11-12T03:55:52;3.40;99.90
16511;DHT22;8368;48.772;8.754;2022-11-12T03:58:17;3.50;99.90
16511;DHT22;8368;48.772;8.754;2022-11-12T04:00:43;3.50;99.90
16511;DHT22;8368;48.772;8.754;2022-11-12T04:03:09;3.50;99.90
16511;DHT22;8368;48.772;8.754;2022-11-12T04:05:34;3.50;99.90
16511;DHT22;8368;48.772;8.754;2022-11-12T04:08:21;3.50;99.90
16511;DHT22;8368;48.772;8.754;2022-11-12T04:13:28;3.50;99.90
16511;DHT22;8368;48.772;8.754;2022-11-12T04:15:57;3.50;99.90
16511;DHT22;8368;48.772;8.754;2022-11-12T04:18:41;3.50;99.90
16511;DHT22;8368;48.772;8.754;2022-11-12T04:21:29;3.50;99.90
16511;DHT22;8368;48.772;8.754;2022-11-12T04:24:14;3.50;99.90
16511;DHT22;8368;48.772;8.754;2022-11-12T04:27:01;3.50;99.90
16511;DHT22;8368;48.772;8.754;2022-11-12T04:29:26;3.50;99.90
16511;DHT22;8368;48.772;8.754;2022-11-12T04:32:11;3.50;99.90
16511;DHT22;8368;48.772;8.754;2022-11-12T04:34:37;3.50;99.90
16511;DHT22;8368;48.772;8.754;2022-11-12T04:37:03;3.40;99.90
16511;DHT22;8368;48.772;8.754;2022-11-12T04:39:29;3.40;99.90
16511;DHT22;8368;48.772;8.754;2022-11-12T04:41:55;3.40;99.90
16511;DHT22;8368;48.772;8.754;2022-11-12T04:44:39;3.40;99.90
16511;DHT22;8368;48.772;8.754;2022-11-12T04:47:24;3.40;99.90
16511;DHT22;8368;48.772;8.754;2022-11-12T04:49:49;3.40;99.90
16511;DHT22;8368;48.772;8.754;2022-11-12T04:52:15;3.40;99.90
16511;DHT22;8368;48.772;8.754;2022-11-12T04:54:41;3.40;99.90
16511;DHT22;8368;48.772;8.754;2022-11-12T04:57:06;3.40;99.90
16511;DHT22;8368;48.772;8.754;2022-11-12T04:59:32;3.50;99.90
16511;DHT22;8368;48.772;8.754;2022-11-12T05:01:57;3.50;99.90
16511;DHT22;8368;48.772;8.754;2022-11-12T05:04:23;3.50;99.90
16511;DHT22;8368;48.772;8.754;2022-11-12T05:06:52;3.50;99.90
16511;DHT22;8368;48.772;8.754;2022-11-12T05:09:24;3.50;99.90
16511;DHT22;8368;48.772;8.754;2022-11-12T05:11:50;3.60;99.90
16511;DHT22;8368;48.772;8.754;2022-11-12T05:14:16;3.60;99.90
16511;DHT22;8368;48.772;8.754;2022-11-12T05:16:42;3.60;99.90
16511;DHT22;8368;48.772;8.754;2022-11-12T05:19:08;3.60;99.90
16511;DHT22;8368;48.772;8.754;2022-11-12T05:21:34;3.60;99.90
16511;DHT22;8368;48.772;8.754;2022-11-12T05:24:18;3.60;99.90
16511;DHT22;8368;48.772;8.754;2022-11-12T05:26:43;3.60;99.90
16511;DHT22;8368;48.772;8.754;2022-11-12T05:29:09;3.70;99.90
16511;DHT22;8368;48.772;8.754;2022-11-12T05:31:35;3.70;99.90
16511;DHT22;8368;48.772;8.754;2022-11-12T05:34:00;3.70;99.90
16511;DHT22;8368;48.772;8.754;2022-11-12T05:36:26;3.70;99.90
16511;DHT22;8368;48.772;8.754;2022-11-12T05:38:51;3.70;99.90
16511;DHT22;8368;48.772;8.754;2022-11-12T05:41:17;3.80;99.90
16511;DHT22;8368;48.772;8.754;2022-11-12T05:43:42;3.80;99.90
16511;DHT22;8368;48.772;8.754;2022-11-12T05:46:08;3.80;99.90
16511;DHT22;8368;48.772;8.754;2022-11-12T05:48:34;3.80;99.90
16511;DHT22;8368;48.772;8.754;2022-11-12T05:50:59;3.80;99.90
16511;DHT22;8368;48.772;8.754;2022-11-12T05:53:25;3.70;99.90
16511;DHT22;8368;48.772;8.754;2022-11-12T05:55:50;3.70;99.90
16511;DHT22;8368;48.772;8.754;2022-11-12T05:58:16;3.70;99.90
16511;DHT22;8368;48.772;8.754;2022-11-12T06:00:42;3.70;99.90
16511;DHT22;8368;48.772;8.754;2022-11-12T06:03:09;3.60;99.90
16511;DHT22;8368;48.772;8.754;2022-11-12T06:05:35;3.60;99.90
16511;DHT22;8368;48.772;8.754;2022-11-12T06:08:01;3.60;99.90
16511;DHT22;8368;48.772;8.754;2022-11-12T06:10:26;3.50;99.90
16511;DHT22;8368;48.772;8.754;2022-11-12T06:12:52;3.50;99.90
16511;DHT22;8368;48.772;8.754;2022-11-12T06:15:18;3.40;99.90
16511;DHT22;8368;48.772;8.754;2022-11-12T06:17:44;3.40;99.90
16511;DHT22;8368;48.772;8.754;2022-11-12T06:20:10;3.40;99.90
16511;DHT22;8368;48.772;8.754;2022-11-12T06:22:35;3.40;99.90
16511;DHT22;8368;48.772;8.754;2022-11-12T06:25:02;3.30;99.90
16511;DHT22;8368;48.772;8.754;2022-11-12T06:27:28;3.30;99.90
16511;DHT22;8368;48.772;8.754;2022-11-12T06:29:54;3.20;99.90
16511;DHT22;8368;48.772;8.754;2022-11-12T06:32:19;3.20;99.90
16511;DHT22;8368;48.772;8.754;2022-11-12T06:34:45;3.10;99.90
16511;DHT22;8368;48.772;8.754;2022-11-12T06:37:10;3.10;99.90
16511;DHT22;8368;48.772;8.754;2022-11-12T06:39:36;3.10;99.90
16511;DHT22;8368;48.772;8.754;2022-11-12T06:42:02;3.10;99.90
16511;DHT22;8368;48.772;8.754;2022-11-12T06:44:27;3.10;99.90
16511;DHT22;8368;48.772;8.754;2022-11-12T06:46:53;3.10;99.90
16511;DHT22;8368;48.772;8.754;2022-11-12T06:49:18;3.10;99.90
16511;DHT22;8368;48.772;8.754;2022-11-12T06:51:44;3.00;99.90
16511;DHT22;8368;48.772;8.754;2022-11-12T06:54:10;3.00;99.90
16511;DHT22;8368;48.772;8.754;2022-11-12T06:56:35;3.00;99.90
16511;DHT22;8368;48.772;8.754;2022-11-12T06:59:01;3.00;99.90
16511;DHT22;8368;48.772;8.754;2022-11-12T07:01:27;3.10;99.90
16511;DHT22;8368;48.772;8.754;2022-11-12T07:03:53;3.10;99.90
16511;DHT22;8368;48.772;8.754;2022-11-12T07:06:19;3.10;99.90
16511;DHT22;8368;48.772;8.754;2022-11-12T07:08:48;3.20;99.90
16511;DHT22;8368;48.772;8.754;2022-11-12T07:11:17;3.30;99.90
16511;DHT22;8368;48.772;8.754;2022-11-12T07:13:45;3.30;99.90
16511;DHT22;8368;48.772;8.754;2022-11-12T07:16:12;3.40;99.90
16511;DHT22;8368;48.772;8.754;2022-11-12T07:18:38;3.40;99.90
16511;DHT22;8368;48.772;8.754;2022-11-12T07:21:10;3.40;99.90
16511;DHT22;8368;48.772;8.754;2022-11-12T07:23:36;3.50;99.90
16511;DHT22;8368;48.772;8.754;2022-11-12T07:26:13;3.50;99.90
16511;DHT22;8368;48.772;8.754;2022-11-12T07:28:39;3.60;99.90
16511;DHT22;8368;48.772;8.754;2022-11-12T07:31:08;3.60;99.90
16511;DHT22;8368;48.772;8.754;2022-11-12T07:33:34;3.60;99.90
16511;DHT22;8368;48.772;8.754;2022-11-12T07:36:02;3.60;99.90
16511;DHT22;8368;48.772;8.754;2022-11-12T07:38:29;3.70;99.90
16511;DHT22;8368;48.772;8.754;2022-11-12T07:41:00;3.70;99.90
16511;DHT22;8368;48.772;8.754;2022-11-12T07:43:29;3.80;99.90
16511;DHT22;8368;48.772;8.754;2022-11-12T07:45:59;3.90;99.90
16511;DHT22;8368;48.772;8.754;2022-11-12T07:48:25;4.00;99.90
16511;DHT22;8368;48.772;8.754;2022-11-12T07:50:51;4.10;99.90
16511;DHT22;8368;48.772;8.754;2022-11-12T07:53:17;4.10;99.90
16511;DHT22;8368;48.772;8.754;2022-11-12T07:55:42;4.20;99.90
16511;DHT22;8368;48.772;8.754;2022-11-12T07:58:08;4.30;99.90
16511;DHT22;8368;48.772;8.754;2022-11-12T08:00:33;4.40;99.90
16511;DHT22;8368;48.772;8.754;2022-11-12T08:02:59;4.50;99.90
16511;DHT22;8368;48.772;8.754;2022-11-12T08:05:26;4.60;99.90
16511;DHT22;8368;48.772;8.754;2022-11-12T08:07:54;4.70;99.90
16511;DHT22;8368;48.772;8.754;2022-11-12T08:10:21;4.90;99.90
16511;DHT22;8368;48.772;8.754;2022-11-12T08:12:46;5.00;99.90
16511;DHT22;8368;48.772;8.754;2022-11-12T08:15:12;5.10;99.90
16511;DHT22;8368;48.772;8.754;2022-11-12T08:17:38;5.20;99.90
16511;DHT22;8368;48.772;8.754;2022-11-12T08:20:05;5.30;99.90
16511;DHT22;8368;48.772;8.754;2022-11-12T08:22:31;5.50;99.90
16511;DHT22;8368;48.772;8.754;2022-11-12T08:24:56;5.60;99.90
16511;DHT22;8368;48.772;8.754;2022-11-12T08:27:22;5.70;99.90
16511;DHT22;8368;48.772;8.754;2022-11-12T08:29:47;5.80;99.90
16511;DHT22;8368;48.772;8.754;2022-11-12T08:32:14;6.00;99.90
16511;DHT22;8368;48.772;8.754;2022-11-12T08:34:40;6.10;99.90
16511;DHT22;8368;48.772;8.754;2022-11-12T08:37:08;6.30;99.90
16511;DHT22;8368;48.772;8.754;2022-11-12T08:39:33;6.40;99.90
16511;DHT22;8368;48.772;8.754;2022-11-12T08:41:59;6.50;99.90
16511;DHT22;8368;48.772;8.754;2022-11-12T08:44:24;6.60;99.90
16511;DHT22;8368;48.772;8.754;2022-11-12T08:46:50;6.70;99.90
16511;DHT22;8368;48.772;8.754;2022-11-12T08:49:15;6.80;99.90
16511;DHT22;8368;48.772;8.754;2022-11-12T08:51:41;6.90;99.90
16511;DHT22;8368;48.772;8.754;2022-11-12T08:54:07;7.00;99.90
16511;DHT22;8368;48.772;8.754;2022-11-12T08:56:32;7.10;99.90
16511;DHT22;8368;48.772;8.754;2022-11-12T08:58:58;7.20;99.90
16511;DHT22;8368;48.772;8.754;2022-11-12T09:01:24;7.30;99.90
16511;DHT22;8368;48.772;8.754;2022-11-12T09:03:50;7.40;99.90
16511;DHT22;8368;48.772;8.754;2022-11-12T09:06:15;7.50;99.90
16511;DHT22;8368;48.772;8.754;2022-11-12T09:08:41;7.60;99.90
16511;DHT22;8368;48.772;8.754;2022-11-12T09:11:07;7.70;99.90
16511;DHT22;8368;48.772;8.754;2022-11-12T09:13:33;7.80;99.90
16511;DHT22;8368;48.772;8.754;2022-11-12T09:16:00;7.90;99.90
16511;DHT22;8368;48.772;8.754;2022-11-12T09:18:27;8.00;99.90
16511;DHT22;8368;48.772;8.754;2022-11-12T09:20:52;8.10;99.90
16511;DHT22;8368;48.772;8.754;2022-11-12T09:23:18;8.20;99.90
16511;DHT22;8368;48.772;8.754;2022-11-12T09:25:44;8.30;99.90
16511;DHT22;8368;48.772;8.754;2022-11-12T09:28:14;8.30;99.90
16511;DHT22;8368;48.772;8.754;2022-11-12T09:30:43;8.40;99.90
16511;DHT22;8368;48.772;8.754;2022-11-12T09:33:11;8.40;99.90
16511;DHT22;8368;48.772;8.754;2022-11-12T09:35:37;8.40;99.90
16511;DHT22;8368;48.772;8.754;2022-11-12T09:38:02;8.40;99.90
16511;DHT22;8368;48.772;8.754;2022-11-12T09:40:40;8.50;99.90
16511;DHT22;8368;48.772;8.754;2022-11-12T09:43:36;8.50;99.90
16511;DHT22;8368;48.772;8.754;2022-11-12T09:46:22;8.60;99.90
16511;DHT22;8368;48.772;8.754;2022-11-12T09:48:55;8.70;99.90
16511;DHT22;8368;48.772;8.754;2022-11-12T09:51:27;8.80;99.90
16511;DHT22;8368;48.772;8.754;2022-11-12T09:53:58;8.90;99.90
16511;DHT22;8368;48.772;8.754;2022-11-12T09:56:26;9.00;99.90
16511;DHT22;8368;48.772;8.754;2022-11-12T09:58:54;9.10;99.90
16511;DHT22;8368;48.772;8.754;2022-11-12T10:01:37;9.20;99.90
16511;DHT22;8368;48.772;8.754;2022-11-12T10:07:25;9.50;99.90
16511;DHT22;8368;48.772;8.754;2022-11-12T10:10:23;9.60;99.90
16511;DHT22;8368;48.772;8.754;2022-11-12T10:16:05;9.90;99.90
16511;DHT22;8368;48.772;8.754;2022-11-12T10:25:18;10.50;99.90
16511;DHT22;8368;48.772;8.754;2022-11-12T10:27:45;10.70;99.90
16511;DHT22;8368;48.772;8.754;2022-11-12T10:30:19;10.80;99.90
16511;DHT22;8368;48.772;8.754;2022-11-12T10:32:46;10.90;99.90
16511;DHT22;8368;48.772;8.754;2022-11-12T10:35:16;10.90;99.90
16511;DHT22;8368;48.772;8.754;2022-11-12T10:37:49;11.00;99.90
16511;DHT22;8368;48.772;8.754;2022-11-12T10:42:57;11.20;99.90
16511;DHT22;8368;48.772;8.754;2022-11-12T10:45:23;11.20;99.90
16511;DHT22;8368;48.772;8.754;2022-11-12T10:47:49;11.30;99.90
16511;DHT22;8368;48.772;8.754;2022-11-12T10:50:30;11.30;99.90
16511;DHT22;8368;48.772;8.754;2022-11-12T10:53:01;11.30;99.90
16511;DHT22;8368;48.772;8.754;2022-11-12T10:55:33;11.40;99.90
16511;DHT22;8368;48.772;8.754;2022-11-12T11:00:29;11.50;99.90
16511;DHT22;8368;48.772;8.754;2022-11-12T11:02:55;11.50;99.90
16511;DHT22;8368;48.772;8.754;2022-11-12T11:05:34;11.60;99.90
16511;DHT22;8368;48.772;8.754;2022-11-12T11:08:01;11.60;99.90
16511;DHT22;8368;48.772;8.754;2022-11-12T11:10:32;11.70;99.90
16511;DHT22;8368;48.772;8.754;2022-11-12T11:15:33;11.70;99.90
16511;DHT22;8368;48.772;8.754;2022-11-12T11:17:59;11.60;99.90
16511;DHT22;8368;48.772;8.754;2022-11-12T11:20:31;11.40;99.90
16511;DHT22;8368;48.772;8.754;2022-11-12T11:23:19;11.40;99.90
16511;DHT22;8368;48.772;8.754;2022-11-12T11:25:49;11.40;99.90
16511;DHT22;8368;48.772;8.754;2022-11-12T11:28:37;11.30;99.90
16511;DHT22;8368;48.772;8.754;2022-11-12T11:31:25;11.30;99.90
16511;DHT22;8368;48.772;8.754;2022-11-12T11:51:01;11.20;99.90
16511;DHT22;8368;48.772;8.754;2022-11-12T11:56:51;11.30;99.90
16511;DHT22;8368;48.772;8.754;2022-11-12T12:07:27;11.50;99.90
16511;DHT22;8368;48.772;8.754;2022-11-12T12:19:44;11.60;99.90
16511;DHT22;8368;48.772;8.754;2022-11-12T12:22:09;11.60;99.90
16511;DHT22;8368;48.772;8.754;2022-11-12T12:24:49;11.50;99.90
16511;DHT22;8368;48.772;8.754;2022-11-12T12:27:25;11.40;99.90
16511;DHT22;8368;48.772;8.754;2022-11-12T12:30:08;11.40;99.90
16511;DHT22;8368;48.772;8.754;2022-11-12T12:32:48;11.40;99.90
16511;DHT22;8368;48.772;8.754;2022-11-12T12:35:28;11.30;99.90
16511;DHT22;8368;48.772;8.754;2022-11-12T12:40:59;11.20;99.90
16511;DHT22;8368;48.772;8.754;2022-11-12T12:43:33;11.20;99.90
16511;DHT22;8368;48.772;8.754;2022-11-12T12:46:01;11.10;99.90
16511;DHT22;8368;48.772;8.754;2022-11-12T12:48:30;11.00;99.90
16511;DHT22;8368;48.772;8.754;2022-11-12T12:50:56;11.00;99.90
16511;DHT22;8368;48.772;8.754;2022-11-12T12:56:01;11.00;99.90
16511;DHT22;8368;48.772;8.754;2022-11-12T13:06:22;11.00;99.90
16511;DHT22;8368;48.772;8.754;2022-11-12T13:09:04;11.10;99.90
16511;DHT22;8368;48.772;8.754;2022-11-12T13:17:02;11.10;99.90
16511;DHT22;8368;48.772;8.754;2022-11-12T13:19:32;11.10;99.90
16511;DHT22;8368;48.772;8.754;2022-11-12T13:40:55;11.50;99.90
16511;DHT22;8368;48.772;8.754;2022-11-12T13:43:34;11.60;99.90
16511;DHT22;8368;48.772;8.754;2022-11-12T13:48:52;11.50;99.90
16511;DHT22;8368;48.772;8.754;2022-11-12T13:53:51;11.30;99.90
16511;DHT22;8368;48.772;8.754;2022-11-12T13:56:31;11.30;99.90
16511;DHT22;8368;48.772;8.754;2022-11-12T13:59:16;11.30;99.90
16511;DHT22;8368;48.772;8.754;2022-11-12T14:01:42;11.30;99.90
16511;DHT22;8368;48.772;8.754;2022-11-12T14:04:14;11.30;99.90
16511;DHT22;8368;48.772;8.754;2022-11-12T14:06:44;11.30;99.90
16511;DHT22;8368;48.772;8.754;2022-11-12T14:14:46;11.20;99.90
16511;DHT22;8368;48.772;8.754;2022-11-12T14:22:38;11.20;99.90
16511;DHT22;8368;48.772;8.754;2022-11-12T14:25:13;11.20;99.90
16511;DHT22;8368;48.772;8.754;2022-11-12T14:27:41;11.10;99.90
16511;DHT22;8368;48.772;8.754;2022-11-12T14:32:43;11.00;99.90
16511;DHT22;8368;48.772;8.754;2022-11-12T14:37:52;10.90;99.90
16511;DHT22;8368;48.772;8.754;2022-11-12T14:40:21;10.80;99.90
16511;DHT22;8368;48.772;8.754;2022-11-12T14:42:48;10.80;99.90
16511;DHT22;8368;48.772;8.754;2022-11-12T14:45:17;10.70;99.90
16511;DHT22;8368;48.772;8.754;2022-11-12T14:47:44;10.70;99.90
16511;DHT22;8368;48.772;8.754;2022-11-12T14:50:24;10.60;99.90
16511;DHT22;8368;48.772;8.754;2022-11-12T14:52:56;10.50;99.90
16511;DHT22;8368;48.772;8.754;2022-11-12T14:55:31;10.50;99.90
16511;DHT22;8368;48.772;8.754;2022-11-12T14:57:57;10.40;99.90
16511;DHT22;8368;48.772;8.754;2022-11-12T15:02:57;10.30;99.90
16511;DHT22;8368;48.772;8.754;2022-11-12T15:05:24;10.20;99.90
16511;DHT22;8368;48.772;8.754;2022-11-12T15:07:55;10.20;99.90
16511;DHT22;8368;48.772;8.754;2022-11-12T15:13:03;10.10;99.90
16511;DHT22;8368;48.772;8.754;2022-11-12T15:15:31;10.00;99.90
16511;DHT22;8368;48.772;8.754;2022-11-12T15:18:00;9.90;99.90
16511;DHT22;8368;48.772;8.754;2022-11-12T15:20:26;9.90;99.90
16511;DHT22;8368;48.772;8.754;2022-11-12T15:22:52;9.80;99.90
16511;DHT22;8368;48.772;8.754;2022-11-12T15:25:26;9.70;99.90
16511;DHT22;8368;48.772;8.754;2022-11-12T15:27:52;9.70;99.90
16511;DHT22;8368;48.772;8.754;2022-11-12T15:30:38;9.60;99.90
16511;DHT22;8368;48.772;8.754;2022-11-12T15:35:36;9.40;99.90
16511;DHT22;8368;48.772;8.754;2022-11-12T15:38:06;9.30;99.90
16511;DHT22;8368;48.772;8.754;2022-11-12T15:40:40;9.20;99.90
16511;DHT22;8368;48.772;8.754;2022-11-12T15:43:20;9.10;99.90
16511;DHT22;8368;48.772;8.754;2022-11-12T15:45:48;9.00;99.90
16511;DHT22;8368;48.772;8.754;2022-11-12T15:48:15;8.90;99.90
16511;DHT22;8368;48.772;8.754;2022-11-12T15:50:40;8.90;99.90
16511;DHT22;8368;48.772;8.754;2022-11-12T15:53:06;8.80;99.90
16511;DHT22;8368;48.772;8.754;2022-11-12T15:55:32;8.70;99.90
16511;DHT22;8368;48.772;8.754;2022-11-12T15:57:58;8.60;99.90
16511;DHT22;8368;48.772;8.754;2022-11-12T16:00:29;8.60;99.90
16511;DHT22;8368;48.772;8.754;2022-11-12T16:05:27;8.40;99.90
16511;DHT22;8368;48.772;8.754;2022-11-12T16:07:53;8.30;99.90
16511;DHT22;8368;48.772;8.754;2022-11-12T16:10:18;8.20;99.90
16511;DHT22;8368;48.772;8.754;2022-11-12T16:12:45;8.10;99.90
16511;DHT22;8368;48.772;8.754;2022-11-12T16:15:17;8.00;99.90
16511;DHT22;8368;48.772;8.754;2022-11-12T16:17:43;8.00;99.90
16511;DHT22;8368;48.772;8.754;2022-11-12T16:20:21;7.90;99.90
16511;DHT22;8368;48.772;8.754;2022-11-12T16:22:48;7.90;99.90
16511;DHT22;8368;48.772;8.754;2022-11-12T16:25:14;7.80;99.90
16511;DHT22;8368;48.772;8.754;2022-11-12T16:27:39;7.80;99.90
16511;DHT22;8368;48.772;8.754;2022-11-12T16:30:12;7.70;99.90
16511;DHT22;8368;48.772;8.754;2022-11-12T16:32:38;7.60;99.90
16511;DHT22;8368;48.772;8.754;2022-11-12T16:35:04;7.60;99.90
16511;DHT22;8368;48.772;8.754;2022-11-12T16:37:30;7.50;99.90
16511;DHT22;8368;48.772;8.754;2022-11-12T16:39:56;7.50;99.90
16511;DHT22;8368;48.772;8.754;2022-11-12T16:42:22;7.40;99.90
16511;DHT22;8368;48.772;8.754;2022-11-12T16:44:47;7.30;99.90
16511;DHT22;8368;48.772;8.754;2022-11-12T16:47:13;7.30;99.90
16511;DHT22;8368;48.772;8.754;2022-11-12T16:49:39;7.30;99.90
16511;DHT22;8368;48.772;8.754;2022-11-12T16:52:09;7.20;99.90
16511;DHT22;8368;48.772;8.754;2022-11-12T16:54:35;7.10;99.90
16511;DHT22;8368;48.772;8.754;2022-11-12T16:57:00;7.10;99.90
16511;DHT22;8368;48.772;8.754;2022-11-12T16:59:26;7.10;99.90
16511;DHT22;8368;48.772;8.754;2022-11-12T17:01:52;7.00;99.90
16511;DHT22;8368;48.772;8.754;2022-11-12T17:04:18;6.90;99.90
16511;DHT22;8368;48.772;8.754;2022-11-12T17:06:43;6.80;99.90
16511;DHT22;8368;48.772;8.754;2022-11-12T17:09:24;6.80;99.90
16511;DHT22;8368;48.772;8.754;2022-11-12T17:11:50;6.70;99.90
16511;DHT22;8368;48.772;8.754;2022-11-12T17:14:15;6.60;99.90
16511;DHT22;8368;48.772;8.754;2022-11-12T17:16:42;6.60;99.90
16511;DHT22;8368;48.772;8.754;2022-11-12T17:19:09;6.60;99.90
16511;DHT22;8368;48.772;8.754;2022-11-12T17:21:35;6.60;99.90
16511;DHT22;8368;48.772;8.754;2022-11-12T17:24:00;6.50;99.90
16511;DHT22;8368;48.772;8.754;2022-11-12T17:26:26;6.50;99.90
16511;DHT22;8368;48.772;8.754;2022-11-12T17:28:51;6.50;99.90
16511;DHT22;8368;48.772;8.754;2022-11-12T17:31:18;6.40;99.90
16511;DHT22;8368;48.772;8.754;2022-11-12T17:33:53;6.30;99.90
16511;DHT22;8368;48.772;8.754;2022-11-12T17:36:22;6.30;99.90
16511;DHT22;8368;48.772;8.754;2022-11-12T17:38:55;6.20;99.90
16511;DHT22;8368;48.772;8.754;2022-11-12T17:41:22;6.10;99.90
16511;DHT22;8368;48.772;8.754;2022-11-12T17:43:52;6.10;99.90
16511;DHT22;8368;48.772;8.754;2022-11-12T17:46:17;6.00;99.90
16511;DHT22;8368;48.772;8.754;2022-11-12T17:48:43;6.00;99.90
16511;DHT22;8368;48.772;8.754;2022-11-12T17:51:18;6.00;99.90
16511;DHT22;8368;48.772;8.754;2022-11-12T17:53:44;6.00;99.90
16511;DHT22;8368;48.772;8.754;2022-11-12T17:56:11;5.90;99.90
16511;DHT22;8368;48.772;8.754;2022-11-12T17:58:38;5.90;99.90
16511;DHT22;8368;48.772;8.754;2022-11-12T18:01:12;5.80;99.90
16511;DHT22;8368;48.772;8.754;2022-11-12T18:03:48;5.80;99.90
16511;DHT22;8368;48.772;8.754;2022-11-12T18:06:25;5.70;99.90
16511;DHT22;8368;48.772;8.754;2022-11-12T18:08:57;5.60;99.90
16511;DHT22;8368;48.772;8.754;2022-11-12T18:11:24;5.60;99.90
16511;DHT22;8368;48.772;8.754;2022-11-12T18:13:50;5.50;99.90
16511;DHT22;8368;48.772;8.754;2022-11-12T18:16:19;5.50;99.90
16511;DHT22;8368;48.772;8.754;2022-11-12T18:18:45;5.40;99.90